sensor_id;sensor_type;location;lat;lon;timestamp;P1;durP1;ratioP1;P2;durP2;ratioP2
8268;SDS011;4174;48.304;16.364;2022-12-18T00:02:16;15.17;;;5.90;;
8268;SDS011;4174;48.304;16.364;2022-12-18T00:08:19;16.17;;;7.33;;
8268;SDS011;4174;48.304;16.364;2022-12-18T00:14:23;19.13;;;9.17;;
8268;SDS011;4174;48.304;16.364;2022-12-18T00:20:27;17.83;;;10.57;;
8268;SDS011;4174;48.304;16.364;2022-12-18T00:26:32;19.98;;;11.85;;
8268;SDS011;4174;48.304;16.364;2022-12-18T00:32:33;18.67;;;10.70;;
8268;SDS011;4174;48.304;16.364;2022-12-18T00:38:38;19.43;;;11.10;;
8268;SDS011;4174;48.304;16.364;2022-12-18T00:44:41;19.80;;;11.43;;
8268;SDS011;4174;48.304;16.364;2022-12-18T00:50:47;19.85;;;12.30;;
8268;SDS011;4174;48.304;16.364;2022-12-18T00:56:49;18.30;;;12.50;;
8268;SDS011;4174;48.304;16.364;2022-12-18T01:02:53;19.93;;;12.20;;
8268;SDS011;4174;48.304;16.364;2022-12-18T01:08:56;20.40;;;12.40;;
8268;SDS011;4174;48.304;16.364;2022-12-18T01:15:00;20.23;;;12.73;;
8268;SDS011;4174;48.304;16.364;2022-12-18T01:21:06;20.60;;;13.10;;
8268;SDS011;4174;48.304;16.364;2022-12-18T01:27:11;22.53;;;13.70;;
8268;SDS011;4174;48.304;16.364;2022-12-18T01:33:15;21.67;;;13.30;;
8268;SDS011;4174;48.304;16.364;2022-12-18T01:39:19;21.47;;;13.63;;
8268;SDS011;4174;48.304;16.364;2022-12-18T01:45:24;20.55;;;13.77;;
8268;SDS011;4174;48.304;16.364;2022-12-18T01:51:27;21.48;;;14.87;;
8268;SDS011;4174;48.304;16.364;2022-12-18T01:57:29;24.10;;;14.70;;
8268;SDS011;4174;48.304;16.364;2022-12-18T02:03:31;22.67;;;14.87;;
8268;SDS011;4174;48.304;16.364;2022-12-18T02:09:38;22.83;;;14.60;;
8268;SDS011;4174;48.304;16.364;2022-12-18T02:16:03;22.97;;;14.90;;
8268;SDS011;4174;48.304;16.364;2022-12-18T02:22:14;24.33;;;15.10;;
8268;SDS011;4174;48.304;16.364;2022-12-18T02:28:14;24.53;;;15.73;;
8268;SDS011;4174;48.304;16.364;2022-12-18T02:34:16;23.53;;;15.47;;
8268;SDS011;4174;48.304;16.364;2022-12-18T02:40:19;24.65;;;15.20;;
8268;SDS011;4174;48.304;16.364;2022-12-18T02:46:24;25.23;;;15.55;;
8268;SDS011;4174;48.304;16.364;2022-12-18T02:59:00;23.25;;;15.38;;
8268;SDS011;4174;48.304;16.364;2022-12-18T03:05:07;28.50;;;16.80;;
8268;SDS011;4174;48.304;16.364;2022-12-18T03:11:11;29.70;;;18.60;;
8268;SDS011;4174;48.304;16.364;2022-12-18T03:17:13;27.93;;;17.60;;
8268;SDS011;4174;48.304;16.364;2022-12-18T03:23:16;25.90;;;16.90;;
8268;SDS011;4174;48.304;16.364;2022-12-18T03:29:19;26.50;;;16.03;;
8268;SDS011;4174;48.304;16.364;2022-12-18T03:35:26;28.08;;;16.95;;
8268;SDS011;4174;48.304;16.364;2022-12-18T03:41:32;27.70;;;16.93;;
8268;SDS011;4174;48.304;16.364;2022-12-18T03:47:39;27.13;;;16.85;;
8268;SDS011;4174;48.304;16.364;2022-12-18T03:53:46;29.33;;;17.60;;
8268;SDS011;4174;48.304;16.364;2022-12-18T03:59:54;28.27;;;18.67;;
8268;SDS011;4174;48.304;16.364;2022-12-18T04:05:57;33.10;;;19.83;;
8268;SDS011;4174;48.304;16.364;2022-12-18T04:12:00;30.08;;;17.87;;
8268;SDS011;4174;48.304;16.364;2022-12-18T04:18:05;30.27;;;19.47;;
8268;SDS011;4174;48.304;16.364;2022-12-18T04:24:08;29.90;;;19.35;;
8268;SDS011;4174;48.304;16.364;2022-12-18T04:30:13;32.75;;;18.35;;
8268;SDS011;4174;48.304;16.364;2022-12-18T04:36:16;29.48;;;18.17;;
8268;SDS011;4174;48.304;16.364;2022-12-18T04:42:21;32.15;;;18.45;;
8268;SDS011;4174;48.304;16.364;2022-12-18T04:48:25;30.60;;;20.12;;
8268;SDS011;4174;48.304;16.364;2022-12-18T04:54:29;29.90;;;18.70;;
8268;SDS011;4174;48.304;16.364;2022-12-18T05:00:32;31.27;;;19.17;;
8268;SDS011;4174;48.304;16.364;2022-12-18T05:06:36;29.20;;;18.00;;
8268;SDS011;4174;48.304;16.364;2022-12-18T05:12:40;32.30;;;18.30;;
8268;SDS011;4174;48.304;16.364;2022-12-18T05:18:49;31.25;;;18.02;;
8268;SDS011;4174;48.304;16.364;2022-12-18T05:24:53;29.27;;;17.80;;
8268;SDS011;4174;48.304;16.364;2022-12-18T05:30:57;28.57;;;17.73;;
8268;SDS011;4174;48.304;16.364;2022-12-18T05:36:59;29.87;;;17.50;;
8268;SDS011;4174;48.304;16.364;2022-12-18T05:43:05;29.53;;;17.87;;
8268;SDS011;4174;48.304;16.364;2022-12-18T05:49:09;31.12;;;17.77;;
8268;SDS011;4174;48.304;16.364;2022-12-18T05:55:13;30.50;;;18.03;;
8268;SDS011;4174;48.304;16.364;2022-12-18T06:01:18;30.95;;;17.58;;
8268;SDS011;4174;48.304;16.364;2022-12-18T06:07:19;32.40;;;18.40;;
8268;SDS011;4174;48.304;16.364;2022-12-18T06:13:23;33.43;;;18.93;;
8268;SDS011;4174;48.304;16.364;2022-12-18T06:19:26;30.37;;;18.00;;
8268;SDS011;4174;48.304;16.364;2022-12-18T06:25:31;31.40;;;19.23;;
8268;SDS011;4174;48.304;16.364;2022-12-18T06:31:34;32.60;;;19.20;;
8268;SDS011;4174;48.304;16.364;2022-12-18T06:37:38;33.03;;;19.47;;
8268;SDS011;4174;48.304;16.364;2022-12-18T06:43:42;33.57;;;19.70;;
8268;SDS011;4174;48.304;16.364;2022-12-18T06:49:46;42.37;;;22.53;;
8268;SDS011;4174;48.304;16.364;2022-12-18T06:55:50;42.55;;;24.10;;
8268;SDS011;4174;48.304;16.364;2022-12-18T07:01:53;40.28;;;22.33;;
8268;SDS011;4174;48.304;16.364;2022-12-18T07:07:57;37.33;;;22.67;;
8268;SDS011;4174;48.304;16.364;2022-12-18T07:14:00;39.42;;;21.85;;
8268;SDS011;4174;48.304;16.364;2022-12-18T07:20:04;37.97;;;22.40;;
8268;SDS011;4174;48.304;16.364;2022-12-18T07:26:11;37.22;;;22.00;;
8268;SDS011;4174;48.304;16.364;2022-12-18T07:32:12;40.47;;;22.87;;
8268;SDS011;4174;48.304;16.364;2022-12-18T07:38:16;40.53;;;23.97;;
8268;SDS011;4174;48.304;16.364;2022-12-18T07:44:20;39.05;;;22.85;;
8268;SDS011;4174;48.304;16.364;2022-12-18T07:50:24;41.93;;;23.63;;
8268;SDS011;4174;48.304;16.364;2022-12-18T07:56:28;42.90;;;23.73;;
8268;SDS011;4174;48.304;16.364;2022-12-18T08:02:32;41.97;;;23.57;;
8268;SDS011;4174;48.304;16.364;2022-12-18T08:08:36;49.28;;;24.30;;
8268;SDS011;4174;48.304;16.364;2022-12-18T08:14:40;44.97;;;24.03;;
8268;SDS011;4174;48.304;16.364;2022-12-18T08:20:44;41.45;;;22.35;;
8268;SDS011;4174;48.304;16.364;2022-12-18T08:26:48;39.58;;;21.60;;
8268;SDS011;4174;48.304;16.364;2022-12-18T08:32:52;42.22;;;21.70;;
8268;SDS011;4174;48.304;16.364;2022-12-18T08:38:56;43.13;;;21.87;;
8268;SDS011;4174;48.304;16.364;2022-12-18T08:44:58;42.70;;;22.97;;
8268;SDS011;4174;48.304;16.364;2022-12-18T08:51:03;47.22;;;24.37;;
8268;SDS011;4174;48.304;16.364;2022-12-18T08:57:07;41.97;;;20.67;;
8268;SDS011;4174;48.304;16.364;2022-12-18T09:03:11;38.50;;;20.87;;
8268;SDS011;4174;48.304;16.364;2022-12-18T09:09:16;41.65;;;22.75;;
8268;SDS011;4174;48.304;16.364;2022-12-18T09:15:20;44.00;;;22.60;;
8268;SDS011;4174;48.304;16.364;2022-12-18T09:21:26;45.55;;;23.45;;
8268;SDS011;4174;48.304;16.364;2022-12-18T09:27:29;43.13;;;22.37;;
8268;SDS011;4174;48.304;16.364;2022-12-18T09:33:35;40.78;;;23.62;;
8268;SDS011;4174;48.304;16.364;2022-12-18T09:39:39;40.03;;;20.40;;
8268;SDS011;4174;48.304;16.364;2022-12-18T09:45:49;39.88;;;19.87;;
8268;SDS011;4174;48.304;16.364;2022-12-18T09:51:54;41.33;;;18.13;;
8268;SDS011;4174;48.304;16.364;2022-12-18T09:58:02;41.50;;;16.33;;
8268;SDS011;4174;48.304;16.364;2022-12-18T10:04:17;29.63;;;11.57;;
8268;SDS011;4174;48.304;16.364;2022-12-18T10:10:23;26.63;;;10.60;;
8268;SDS011;4174;48.304;16.364;2022-12-18T10:16:42;32.27;;;12.77;;
8268;SDS011;4174;48.304;16.364;2022-12-18T10:23:01;28.55;;;10.65;;
8268;SDS011;4174;48.304;16.364;2022-12-18T10:29:12;30.08;;;10.90;;
8268;SDS011;4174;48.304;16.364;2022-12-18T10:35:17;27.37;;;10.90;;
8268;SDS011;4174;48.304;16.364;2022-12-18T10:41:23;30.27;;;11.13;;
8268;SDS011;4174;48.304;16.364;2022-12-18T10:47:25;27.75;;;10.50;;
8268;SDS011;4174;48.304;16.364;2022-12-18T10:53:30;29.43;;;12.33;;
8268;SDS011;4174;48.304;16.364;2022-12-18T10:59:33;28.12;;;12.25;;
8268;SDS011;4174;48.304;16.364;2022-12-18T11:05:36;34.28;;;13.43;;
8268;SDS011;4174;48.304;16.364;2022-12-18T11:11:40;36.97;;;19.00;;
8268;SDS011;4174;48.304;16.364;2022-12-18T11:17:43;51.53;;;26.10;;
8268;SDS011;4174;48.304;16.364;2022-12-18T11:23:49;39.37;;;21.90;;
8268;SDS011;4174;48.304;16.364;2022-12-18T11:29:52;38.95;;;20.17;;
8268;SDS011;4174;48.304;16.364;2022-12-18T11:35:55;39.93;;;19.00;;
8268;SDS011;4174;48.304;16.364;2022-12-18T11:42:01;36.42;;;17.65;;
8268;SDS011;4174;48.304;16.364;2022-12-18T11:48:12;32.85;;;16.98;;
8268;SDS011;4174;48.304;16.364;2022-12-18T11:54:15;30.58;;;14.13;;
8268;SDS011;4174;48.304;16.364;2022-12-18T12:00:18;36.13;;;18.75;;
8268;SDS011;4174;48.304;16.364;2022-12-18T12:25:32;36.30;;;19.85;;
8268;SDS011;4174;48.304;16.364;2022-12-18T12:38:29;35.17;;;18.95;;
8268;SDS011;4174;48.304;16.364;2022-12-18T12:44:33;37.58;;;19.55;;
8268;SDS011;4174;48.304;16.364;2022-12-18T12:50:35;38.30;;;20.30;;
8268;SDS011;4174;48.304;16.364;2022-12-18T13:03:06;36.65;;;19.15;;
8268;SDS011;4174;48.304;16.364;2022-12-18T13:09:14;37.70;;;19.67;;
8268;SDS011;4174;48.304;16.364;2022-12-18T13:15:21;38.73;;;20.53;;
8268;SDS011;4174;48.304;16.364;2022-12-18T13:21:39;36.93;;;19.97;;
8268;SDS011;4174;48.304;16.364;2022-12-18T13:27:54;37.15;;;17.73;;
8268;SDS011;4174;48.304;16.364;2022-12-18T13:34:15;35.67;;;15.77;;
8268;SDS011;4174;48.304;16.364;2022-12-18T13:46:55;39.83;;;19.70;;
8268;SDS011;4174;48.304;16.364;2022-12-18T13:52:58;41.53;;;19.57;;
8268;SDS011;4174;48.304;16.364;2022-12-18T13:59:08;38.10;;;17.70;;
8268;SDS011;4174;48.304;16.364;2022-12-18T14:11:25;38.73;;;18.43;;
8268;SDS011;4174;48.304;16.364;2022-12-18T14:17:28;41.80;;;20.35;;
8268;SDS011;4174;48.304;16.364;2022-12-18T14:23:36;45.17;;;20.75;;
8268;SDS011;4174;48.304;16.364;2022-12-18T14:29:39;45.70;;;20.00;;
8268;SDS011;4174;48.304;16.364;2022-12-18T14:35:43;39.60;;;14.73;;
8268;SDS011;4174;48.304;16.364;2022-12-18T14:41:57;41.42;;;17.87;;
8268;SDS011;4174;48.304;16.364;2022-12-18T14:48:00;43.77;;;19.87;;
8268;SDS011;4174;48.304;16.364;2022-12-18T14:54:04;39.40;;;17.80;;
8268;SDS011;4174;48.304;16.364;2022-12-18T15:00:10;39.43;;;19.37;;
8268;SDS011;4174;48.304;16.364;2022-12-18T15:06:21;41.60;;;20.35;;
8268;SDS011;4174;48.304;16.364;2022-12-18T15:13:09;43.43;;;20.17;;
8268;SDS011;4174;48.304;16.364;2022-12-18T15:19:15;41.30;;;20.10;;
8268;SDS011;4174;48.304;16.364;2022-12-18T15:31:29;42.63;;;20.03;;
8268;SDS011;4174;48.304;16.364;2022-12-18T15:37:30;41.33;;;19.83;;
8268;SDS011;4174;48.304;16.364;2022-12-18T15:43:34;43.57;;;20.20;;
8268;SDS011;4174;48.304;16.364;2022-12-18T15:49:37;42.17;;;19.87;;
8268;SDS011;4174;48.304;16.364;2022-12-18T15:55:40;44.43;;;20.67;;
8268;SDS011;4174;48.304;16.364;2022-12-18T16:01:50;47.75;;;22.17;;
8268;SDS011;4174;48.304;16.364;2022-12-18T16:07:52;43.67;;;19.48;;
8268;SDS011;4174;48.304;16.364;2022-12-18T16:13:56;49.03;;;22.03;;
8268;SDS011;4174;48.304;16.364;2022-12-18T16:20:00;44.57;;;20.93;;
8268;SDS011;4174;48.304;16.364;2022-12-18T16:26:03;43.27;;;20.20;;
8268;SDS011;4174;48.304;16.364;2022-12-18T16:32:08;47.17;;;21.50;;
8268;SDS011;4174;48.304;16.364;2022-12-18T16:38:11;41.13;;;20.47;;
8268;SDS011;4174;48.304;16.364;2022-12-18T16:44:15;41.72;;;21.10;;
8268;SDS011;4174;48.304;16.364;2022-12-18T16:50:17;43.77;;;21.00;;
8268;SDS011;4174;48.304;16.364;2022-12-18T16:56:21;48.63;;;23.77;;
8268;SDS011;4174;48.304;16.364;2022-12-18T17:02:25;45.65;;;22.92;;
8268;SDS011;4174;48.304;16.364;2022-12-18T17:08:29;45.70;;;23.17;;
8268;SDS011;4174;48.304;16.364;2022-12-18T17:14:32;45.72;;;22.25;;
8268;SDS011;4174;48.304;16.364;2022-12-18T17:20:35;43.40;;;22.00;;
8268;SDS011;4174;48.304;16.364;2022-12-18T17:26:38;43.03;;;22.47;;
8268;SDS011;4174;48.304;16.364;2022-12-18T17:32:43;46.67;;;23.13;;
8268;SDS011;4174;48.304;16.364;2022-12-18T17:38:49;50.13;;;24.57;;
8268;SDS011;4174;48.304;16.364;2022-12-18T17:44:52;44.53;;;22.20;;
8268;SDS011;4174;48.304;16.364;2022-12-18T17:51:01;42.70;;;22.27;;
8268;SDS011;4174;48.304;16.364;2022-12-18T17:57:03;43.30;;;22.53;;
8268;SDS011;4174;48.304;16.364;2022-12-18T18:03:06;46.00;;;22.52;;
8268;SDS011;4174;48.304;16.364;2022-12-18T18:09:10;48.05;;;24.20;;
8268;SDS011;4174;48.304;16.364;2022-12-18T18:15:13;45.80;;;23.23;;
8268;SDS011;4174;48.304;16.364;2022-12-18T18:21:17;51.83;;;24.63;;
8268;SDS011;4174;48.304;16.364;2022-12-18T18:27:21;49.80;;;24.37;;
8268;SDS011;4174;48.304;16.364;2022-12-18T18:33:25;50.38;;;24.35;;
8268;SDS011;4174;48.304;16.364;2022-12-18T18:39:30;47.17;;;24.10;;
8268;SDS011;4174;48.304;16.364;2022-12-18T18:45:33;49.83;;;24.50;;
8268;SDS011;4174;48.304;16.364;2022-12-18T18:51:38;54.77;;;25.37;;
8268;SDS011;4174;48.304;16.364;2022-12-18T18:57:41;49.83;;;25.08;;
8268;SDS011;4174;48.304;16.364;2022-12-18T19:03:45;51.60;;;26.73;;
8268;SDS011;4174;48.304;16.364;2022-12-18T19:09:47;55.30;;;27.73;;
8268;SDS011;4174;48.304;16.364;2022-12-18T19:15:52;50.73;;;26.20;;
8268;SDS011;4174;48.304;16.364;2022-12-18T19:21:54;47.87;;;25.50;;
8268;SDS011;4174;48.304;16.364;2022-12-18T19:27:58;50.90;;;26.43;;
8268;SDS011;4174;48.304;16.364;2022-12-18T19:34:01;50.83;;;27.57;;
8268;SDS011;4174;48.304;16.364;2022-12-18T19:40:04;49.90;;;26.57;;
8268;SDS011;4174;48.304;16.364;2022-12-18T19:46:10;51.67;;;27.17;;
8268;SDS011;4174;48.304;16.364;2022-12-18T19:52:11;52.77;;;26.97;;
8268;SDS011;4174;48.304;16.364;2022-12-18T19:58:18;51.70;;;26.33;;
8268;SDS011;4174;48.304;16.364;2022-12-18T20:04:22;51.13;;;25.80;;
8268;SDS011;4174;48.304;16.364;2022-12-18T20:10:27;51.13;;;26.60;;
8268;SDS011;4174;48.304;16.364;2022-12-18T20:16:30;53.13;;;26.67;;
8268;SDS011;4174;48.304;16.364;2022-12-18T20:22:34;51.17;;;27.67;;
8268;SDS011;4174;48.304;16.364;2022-12-18T20:28:39;52.93;;;27.03;;
8268;SDS011;4174;48.304;16.364;2022-12-18T20:34:43;54.70;;;26.80;;
8268;SDS011;4174;48.304;16.364;2022-12-18T20:40:48;53.22;;;26.70;;
8268;SDS011;4174;48.304;16.364;2022-12-18T20:46:53;52.67;;;25.57;;
8268;SDS011;4174;48.304;16.364;2022-12-18T20:52:55;53.73;;;26.20;;
8268;SDS011;4174;48.304;16.364;2022-12-18T20:58:59;51.47;;;26.67;;
8268;SDS011;4174;48.304;16.364;2022-12-18T21:05:03;52.03;;;25.20;;
8268;SDS011;4174;48.304;16.364;2022-12-18T21:11:11;53.03;;;25.57;;
8268;SDS011;4174;48.304;16.364;2022-12-18T21:17:34;53.55;;;27.60;;
8268;SDS011;4174;48.304;16.364;2022-12-18T21:23:37;50.53;;;27.00;;
8268;SDS011;4174;48.304;16.364;2022-12-18T21:29:41;52.33;;;27.17;;
8268;SDS011;4174;48.304;16.364;2022-12-18T21:35:44;49.13;;;26.43;;
8268;SDS011;4174;48.304;16.364;2022-12-18T21:41:49;60.13;;;29.13;;
8268;SDS011;4174;48.304;16.364;2022-12-18T21:47:57;57.50;;;28.93;;
8268;SDS011;4174;48.304;16.364;2022-12-18T21:54:01;56.53;;;28.30;;
8268;SDS011;4174;48.304;16.364;2022-12-18T22:00:05;60.17;;;29.00;;
8268;SDS011;4174;48.304;16.364;2022-12-18T22:06:09;60.47;;;29.63;;
8268;SDS011;4174;48.304;16.364;2022-12-18T22:12:12;63.03;;;31.23;;
8268;SDS011;4174;48.304;16.364;2022-12-18T22:18:15;53.50;;;27.83;;
8268;SDS011;4174;48.304;16.364;2022-12-18T22:24:19;62.97;;;31.93;;
8268;SDS011;4174;48.304;16.364;2022-12-18T22:30:24;64.85;;;30.90;;
8268;SDS011;4174;48.304;16.364;2022-12-18T22:36:27;67.83;;;31.77;;
8268;SDS011;4174;48.304;16.364;2022-12-18T22:42:30;65.47;;;32.50;;
8268;SDS011;4174;48.304;16.364;2022-12-18T22:48:33;60.37;;;31.10;;
8268;SDS011;4174;48.304;16.364;2022-12-18T22:54:38;67.40;;;33.67;;
8268;SDS011;4174;48.304;16.364;2022-12-18T23:00:42;66.60;;;32.47;;
8268;SDS011;4174;48.304;16.364;2022-12-18T23:06:46;66.23;;;32.00;;
8268;SDS011;4174;48.304;16.364;2022-12-18T23:12:50;67.67;;;33.10;;
8268;SDS011;4174;48.304;16.364;2022-12-18T23:18:54;76.07;;;34.35;;
8268;SDS011;4174;48.304;16.364;2022-12-18T23:24:57;69.37;;;33.40;;
8268;SDS011;4174;48.304;16.364;2022-12-18T23:31:06;68.32;;;33.10;;
8268;SDS011;4174;48.304;16.364;2022-12-18T23:37:08;64.10;;;30.60;;
8268;SDS011;4174;48.304;16.364;2022-12-18T23:43:14;66.07;;;31.83;;
8268;SDS011;4174;48.304;16.364;2022-12-18T23:49:17;64.87;;;31.63;;
8268;SDS011;4174;48.304;16.364;2022-12-18T23:55:22;55.27;;;28.77;;
